Folkston, GA (31537)

2:18 AM EDT on November 01, 2014 (GMT -0400)
Riverside | Change Station
CLOSE
Current Station
Personal Weather Station
Location: Folkston, GA
Elevation: 84 ft
Nearby Weather Stations

Elev 84 ft 30.98 °N, 81.96 °W | Updated 2 minutes ago

Clear
Clear
50.5 °F
Feels Like 50.5 °F
N
2.0
Wind Variable Wind from West
Gusts 3.0 mph

Today
High -- | Low -- °F
--% Chance of Precip.
Yesterday
High -- | Low -- °F
Precip. -- in
7:43 AM 6:39 PM
Waxing Gibbous, 63% visible
Pressure 29.87 in
Visibility 10.0 miles
Clouds Clear
Dew Point 46 °F
Humidity 84%
Rainfall 0.00 in
Snow Depth Not available.
UV 0.0 out of 12
Pollen 3.50 out of 12
Air Quality Not available.
Flu Activity Not available.
METAR KAYS 010555Z AUTO 30008KT 10SM CLR 14/08 A2987 RMK AO2 T01380080 10182 20138

More Conditions Fewer Conditions

Pressure 29.87 in
Visibility 10.0 miles
Clouds Clear
Dew Point 46 °F
Humidity 84%
Rainfall 0.00 in
Snow Depth Not available.
UV 0.0 out of 12
Pollen 3.50 out of 12
Air Quality Not available.
Flu Activity Not available.
METAR KAYS 010555Z AUTO 30008KT 10SM CLR 14/08 A2987 RMK AO2 T01380080 10182 20138

More Conditions Fewer Conditions

10-Day Weather Forecast

Almanac

Astronomy

Nov. 01, 2014 Rise Set
Actual Time
Civil Twilight
Nautical Twilight
Astronomical Twilight
Moon
Length of Visible Light
Length of Day
Tomorrow will be .
, % of the Moon is Illuminated

Today's Extremes

State Highs State Lows

Community

WunderPhotos

Upload Photos

1,766,866 photos uploaded!

WunderBlogs® & News

Nearby

Air Quality

  Air Quality AQ Index Pollutant
Not available.

Snow Depth

Station Depth Elevation

Earthquake Activity

City Distance Mag. Time & Date
Minimum magnitude displayed is 2.5.

Coastal Water Temperatures

Place Temperature

Nearby Weather Stations